San Fernando, Trinidad and Tobago
Current Conditions -  °F | °C
As of 5:00 PM on Sunday 23 Nov 2014 (Local Time) from TTPP Reporting Station
Few Clouds Few Clouds  
Wind Chill: 84°   Ceiling: Unl
Heat Index: 91°   Visibility: 6mi
Dew Point: 73°   Wind: 12mph
Humidity: 70%   Direction: 90°E
Pressure: 29.85"   Gusts: NA
Location:  10.25°N, 61.46°W
Report Text: TTPP 232100Z 09010KT 9999 FEW018 29/23 Q1011 NOSIG RMK-JP
Loading
Personal Weather Stations






























Interactive Weather Map New forecast layout! Learn more

10-Day Weather Forecast

Advertisements
Track Severe Weather on mobile